createdAt,value
2023-04-19T00:01:32.667Z,10.32
2023-04-19T00:04:00.608Z,10.29
2023-04-19T00:06:30.503Z,10.24
2023-04-19T00:08:58.319Z,10.20
2023-04-19T00:11:26.116Z,10.17
2023-04-19T00:13:53.963Z,10.13
2023-04-19T00:16:21.761Z,10.10
2023-04-19T00:18:49.570Z,10.06
2023-04-19T00:21:17.369Z,10.02
2023-04-19T00:23:45.223Z,9.98
2023-04-19T00:26:15.719Z,9.93
2023-04-19T00:28:43.550Z,9.89
2023-04-19T00:31:11.665Z,9.86
2023-04-19T00:33:39.488Z,9.81
2023-04-19T00:36:07.679Z,9.77
2023-04-19T00:38:35.470Z,9.71
2023-04-19T00:41:03.235Z,9.67
2023-04-19T00:43:31.028Z,9.61
2023-04-19T00:45:59.151Z,9.58
2023-04-19T00:48:26.972Z,9.53
2023-04-19T00:50:55.171Z,9.48
2023-04-19T00:53:23.044Z,9.44
2023-04-19T00:55:51.498Z,9.40
2023-04-19T00:58:19.365Z,9.36
2023-04-19T01:00:47.168Z,9.32
2023-04-19T01:03:17.092Z,9.29
2023-04-19T01:05:45.001Z,9.25
2023-04-19T01:08:12.753Z,9.20
2023-04-19T01:10:40.642Z,9.16
2023-04-19T01:13:08.476Z,9.12
2023-04-19T01:15:36.857Z,9.06
2023-04-19T01:18:04.885Z,9.00
2023-04-19T01:20:32.816Z,8.94
2023-04-19T01:23:00.707Z,8.88
2023-04-19T01:25:28.652Z,8.80
2023-04-19T01:27:56.580Z,8.74
2023-04-19T01:30:24.449Z,8.67
2023-04-19T01:32:52.227Z,8.60
2023-04-19T01:35:21.398Z,8.52
2023-04-19T01:37:49.235Z,8.45
2023-04-19T01:40:17.385Z,8.39
2023-04-19T01:42:45.257Z,8.34
2023-04-19T01:45:13.095Z,8.27
2023-04-19T01:47:40.902Z,8.22
2023-04-19T01:50:09.394Z,8.16
2023-04-19T01:52:37.235Z,8.10
2023-04-19T01:55:05.593Z,8.06
2023-04-19T01:57:33.442Z,8.01
2023-04-19T02:00:02.411Z,7.96
2023-04-19T02:02:30.410Z,7.89
2023-04-19T02:04:58.366Z,7.84
2023-04-19T02:07:26.187Z,7.77
2023-04-19T02:09:53.857Z,7.70
2023-04-19T02:12:21.667Z,7.63
2023-04-19T02:14:49.642Z,7.55
2023-04-19T02:17:17.497Z,7.48
2023-04-19T02:19:45.311Z,7.41
2023-04-19T02:22:13.038Z,7.34
2023-04-19T02:24:40.827Z,7.27
2023-04-19T02:27:08.720Z,7.19
2023-04-19T02:29:37.985Z,7.11
2023-04-19T02:32:07.055Z,7.04
2023-04-19T02:34:36.018Z,6.96
2023-04-19T02:37:03.741Z,6.89
2023-04-19T02:39:31.808Z,6.82
2023-04-19T02:41:59.796Z,6.75
2023-04-19T02:44:27.726Z,6.69
2023-04-19T02:46:55.597Z,6.62
2023-04-19T02:49:23.337Z,6.55
2023-04-19T02:51:52.447Z,6.49
2023-04-19T02:54:20.285Z,6.44
2023-04-19T02:56:48.022Z,6.38
2023-04-19T02:59:15.775Z,6.32
2023-04-19T03:01:43.685Z,6.26
2023-04-19T03:04:11.784Z,6.19
2023-04-19T03:06:39.769Z,6.14
2023-04-19T03:09:07.469Z,6.08
2023-04-19T03:11:35.829Z,6.02
2023-04-19T03:14:03.598Z,5.96
2023-04-19T03:16:31.340Z,5.89
2023-04-19T03:18:59.185Z,5.83
2023-04-19T03:21:29.172Z,5.78
2023-04-19T03:23:57.031Z,5.78
2023-04-19T03:26:24.830Z,6.95
2023-04-19T03:28:55.822Z,8.44
2023-04-19T03:31:23.650Z,8.26
2023-04-19T03:33:51.511Z,7.57
2023-04-19T03:36:19.276Z,7.08
2023-04-19T03:38:47.031Z,6.75
2023-04-19T03:41:24.822Z,6.52
2023-04-19T03:43:52.695Z,6.32
2023-04-19T03:46:20.542Z,6.16
2023-04-19T03:48:48.357Z,6.11
2023-04-19T03:51:16.803Z,7.26
2023-04-19T03:53:44.577Z,8.76
2023-04-19T03:56:12.409Z,9.06
2023-04-19T03:58:41.562Z,8.21
2023-04-19T04:01:21.836Z,7.53
2023-04-19T04:03:50.078Z,7.07
2023-04-19T04:06:18.170Z,6.76
2023-04-19T04:08:46.311Z,6.50
2023-04-19T04:11:14.143Z,6.30
2023-04-19T04:13:43.376Z,6.19
2023-04-19T04:16:11.202Z,7.16
2023-04-19T04:18:39.063Z,8.58
2023-04-19T04:21:07.524Z,9.29
2023-04-19T04:23:35.400Z,8.59
2023-04-19T04:26:04.982Z,7.91
2023-04-19T04:28:33.412Z,7.44
2023-04-19T04:31:01.537Z,7.08
2023-04-19T04:33:29.377Z,6.81
2023-04-19T04:35:59.158Z,6.58
2023-04-19T04:38:27.504Z,6.89
2023-04-19T04:40:55.978Z,8.40
2023-04-19T04:43:25.850Z,9.31
2023-04-19T04:45:55.733Z,8.63
2023-04-19T04:48:24.301Z,7.96
2023-04-19T04:50:52.088Z,7.52
2023-04-19T04:53:20.443Z,7.21
2023-04-19T04:55:48.231Z,6.97
2023-04-19T04:58:16.569Z,7.17
2023-04-19T05:00:44.492Z,8.63
2023-04-19T05:03:12.646Z,9.62
2023-04-19T05:05:44.452Z,9.01
2023-04-19T05:08:13.134Z,8.32
2023-04-19T05:10:41.161Z,7.87
2023-04-19T05:13:08.970Z,7.57
2023-04-19T05:15:36.757Z,7.33
2023-04-19T05:18:05.588Z,7.16
2023-04-19T05:20:36.330Z,7.42
2023-04-19T05:23:04.115Z,8.89
2023-04-19T05:25:32.039Z,9.82
2023-04-19T05:28:00.408Z,9.25
2023-04-19T05:30:28.294Z,8.58
2023-04-19T05:32:56.931Z,8.14
2023-04-19T05:35:24.735Z,7.84
2023-04-19T05:37:52.572Z,7.62
2023-04-19T05:40:20.664Z,7.44
2023-04-19T05:42:48.492Z,7.72
2023-04-19T05:45:18.495Z,9.14
2023-04-19T05:47:46.567Z,9.99
2023-04-19T05:50:17.976Z,9.41
2023-04-19T05:52:46.360Z,8.80
2023-04-19T05:55:14.140Z,8.41
2023-04-19T05:57:42.049Z,8.14
2023-04-19T06:00:16.752Z,7.94
2023-04-19T06:02:44.777Z,7.81
2023-04-19T06:05:13.001Z,8.03
2023-04-19T06:07:47.267Z,9.48
2023-04-19T06:10:23.677Z,10.47
2023-04-19T06:12:51.610Z,9.91
2023-04-19T06:15:19.548Z,9.31
2023-04-19T06:17:47.480Z,8.91
2023-04-19T06:20:22.316Z,8.63
2023-04-19T06:22:50.822Z,8.40
2023-04-19T06:25:18.831Z,8.57
2023-04-19T06:27:46.800Z,10.00
2023-04-19T06:30:14.890Z,10.92
2023-04-19T06:32:42.839Z,10.30
2023-04-19T06:35:11.187Z,9.68
2023-04-19T06:37:39.158Z,9.23
2023-04-19T06:40:08.459Z,8.92
2023-04-19T06:42:36.256Z,8.67
2023-04-19T06:45:04.978Z,8.96
2023-04-19T06:47:34.810Z,10.47
2023-04-19T06:50:03.684Z,11.29
2023-04-19T06:52:31.523Z,10.59
2023-04-19T06:54:59.346Z,9.93
2023-04-19T06:57:27.091Z,9.50
2023-04-19T06:59:55.649Z,9.20
2023-04-19T07:02:23.611Z,9.11
2023-04-19T07:04:51.652Z,10.30
2023-04-19T07:07:19.501Z,11.32
2023-04-19T07:09:47.300Z,10.78
2023-04-19T07:12:15.160Z,10.14
2023-04-19T07:14:42.981Z,9.68
2023-04-19T07:17:10.923Z,9.48
2023-04-19T07:19:38.799Z,10.51
2023-04-19T07:22:06.569Z,11.82
2023-04-19T07:24:34.388Z,11.90
2023-04-19T07:27:02.638Z,11.04
2023-04-19T07:29:30.591Z,10.37
2023-04-19T07:32:00.036Z,9.93
2023-04-19T07:34:27.909Z,10.26
2023-04-19T07:36:55.832Z,11.63
2023-04-19T07:39:23.868Z,12.72
2023-04-19T07:41:51.826Z,12.42
2023-04-19T07:44:20.218Z,11.49
2023-04-19T07:46:48.167Z,10.80
2023-04-19T07:49:16.054Z,10.30
2023-04-19T07:51:43.923Z,10.72
2023-04-19T07:54:11.741Z,12.08
2023-04-19T07:56:39.654Z,13.18
2023-04-19T07:59:09.275Z,13.13
2023-04-19T08:01:37.677Z,12.11
2023-04-19T08:04:06.201Z,11.34
2023-04-19T08:06:34.558Z,10.83
2023-04-19T08:09:03.041Z,10.81
2023-04-19T08:11:31.387Z,12.04
2023-04-19T08:14:11.527Z,13.14
2023-04-19T08:19:17.550Z,11.89
2023-04-19T08:21:45.404Z,11.17
2023-04-19T08:24:13.143Z,10.66
2023-04-19T08:26:41.142Z,10.26
2023-04-19T08:29:09.415Z,10.48
2023-04-19T08:31:37.528Z,11.75
2023-04-19T08:34:05.580Z,12.72
2023-04-19T08:36:39.468Z,12.50
2023-04-19T08:39:24.418Z,11.47
2023-04-19T08:42:13.322Z,10.64
2023-04-19T08:45:23.486Z,10.70
2023-04-19T08:47:58.551Z,12.05
2023-04-19T08:50:36.131Z,12.44
2023-04-19T08:53:24.195Z,11.37
2023-04-19T08:58:45.705Z,10.39
2023-04-19T09:01:33.852Z,11.68
2023-04-19T09:04:31.730Z,12.19
2023-04-19T09:06:56.078Z,11.12
2023-04-19T09:11:59.340Z,10.09
2023-04-19T09:14:28.806Z,11.03
2023-04-19T09:17:15.599Z,11.91
2023-04-19T09:19:50.398Z,11.48
2023-04-19T09:22:19.273Z,10.57
2023-04-19T09:25:14.511Z,10.27
2023-04-19T09:27:36.551Z,11.25
2023-04-19T09:30:06.760Z,11.82
2023-04-19T09:32:49.265Z,11.01
2023-04-19T09:35:17.457Z,10.02
2023-04-19T09:38:06.197Z,10.25
2023-04-19T09:40:35.098Z,11.37
2023-04-19T09:43:17.872Z,11.62
2023-04-19T09:45:51.689Z,10.61
2023-04-19T09:48:19.807Z,10.07
2023-04-19T09:51:00.760Z,10.77
2023-04-19T09:53:34.502Z,11.71
2023-04-19T09:56:03.872Z,12.01
2023-04-19T09:58:42.523Z,11.01
2023-04-19T10:01:20.303Z,10.04
2023-04-19T10:03:50.963Z,10.01
2023-04-19T10:08:53.950Z,11.87
2023-04-19T10:11:22.748Z,11.54
2023-04-19T10:13:54.594Z,10.60
2023-04-19T10:16:22.485Z,9.96
2023-04-19T10:18:50.719Z,10.70
2023-04-19T10:21:19.825Z,11.90
2023-04-19T10:23:47.782Z,12.73
2023-04-19T10:26:16.137Z,12.49
2023-04-19T10:28:44.176Z,11.31
2023-04-19T10:31:16.363Z,10.51
2023-04-19T10:33:44.496Z,11.14
2023-04-19T10:36:15.764Z,12.21
2023-04-19T10:38:49.438Z,12.77
2023-04-19T10:41:19.239Z,12.00
2023-04-19T10:43:56.510Z,11.00
2023-04-19T10:46:29.087Z,10.79
2023-04-19T10:49:01.733Z,11.96
2023-04-19T10:51:34.064Z,12.94
2023-04-19T10:54:03.888Z,13.22
2023-04-19T10:56:34.468Z,12.14
2023-04-19T10:59:02.589Z,11.17
2023-04-19T11:01:46.543Z,11.18
2023-04-19T11:04:45.198Z,12.50
2023-04-19T11:07:13.096Z,13.50
2023-04-19T11:09:47.677Z,12.77
2023-04-19T11:12:19.200Z,11.68
2023-04-19T11:14:57.707Z,11.25
2023-04-19T11:17:32.195Z,12.37
2023-04-19T11:20:11.260Z,13.38
2023-04-19T11:22:45.210Z,12.92
2023-04-19T11:25:14.743Z,11.85
2023-04-19T11:27:44.696Z,11.07
2023-04-19T11:30:29.242Z,11.18
2023-04-19T11:32:57.648Z,12.54
2023-04-19T11:35:27.710Z,13.47
2023-04-19T11:37:57.020Z,12.98
2023-04-19T11:40:26.348Z,11.92
2023-04-19T11:42:56.505Z,11.14
2023-04-19T11:45:35.837Z,10.93
2023-04-19T11:48:08.375Z,12.17
2023-04-19T11:50:41.769Z,13.10
2023-04-19T11:53:22.247Z,12.44
2023-04-19T11:55:56.360Z,11.41
2023-04-19T11:58:49.659Z,10.69
2023-04-19T12:01:21.960Z,11.03
2023-04-19T12:03:51.816Z,12.24
2023-04-19T12:06:29.201Z,13.15
2023-04-19T12:08:57.270Z,12.63
2023-04-19T12:11:41.694Z,11.63
2023-04-19T12:14:15.208Z,10.86
2023-04-19T12:16:45.036Z,10.85
2023-04-19T12:22:14.325Z,13.38
2023-04-19T12:24:42.966Z,13.19
2023-04-19T12:27:11.518Z,12.13
2023-04-19T12:29:39.550Z,11.33
2023-04-19T12:32:07.495Z,10.77
2023-04-19T12:34:35.465Z,11.00
2023-04-19T12:37:04.427Z,12.30
2023-04-19T12:39:32.214Z,13.40
2023-04-19T12:42:00.159Z,13.24
2023-04-19T12:44:27.895Z,12.19
2023-04-19T12:46:57.809Z,11.39
2023-04-19T12:49:25.754Z,10.84
2023-04-19T12:51:55.189Z,11.11
2023-04-19T12:54:24.373Z,12.43
2023-04-19T12:56:52.511Z,13.34
2023-04-19T12:59:22.099Z,12.75
2023-04-19T13:01:50.340Z,11.82
2023-04-19T13:04:18.695Z,11.14
2023-04-19T13:06:47.104Z,10.67
2023-04-19T13:09:15.391Z,11.22
2023-04-19T13:11:43.355Z,12.55
2023-04-19T13:14:11.174Z,13.19
2023-04-19T13:16:39.116Z,12.34
2023-04-19T13:19:06.961Z,11.52
2023-04-19T13:21:34.736Z,10.93
2023-04-19T13:24:02.594Z,10.96
2023-04-19T13:26:30.465Z,12.27
2023-04-19T13:28:58.455Z,13.38
2023-04-19T13:31:27.296Z,13.76
2023-04-19T13:33:55.565Z,12.81
2023-04-19T13:36:23.477Z,11.92
2023-04-19T13:38:51.798Z,11.30
2023-04-19T13:41:20.624Z,11.32
2023-04-19T13:43:48.622Z,12.62
2023-04-19T13:46:17.104Z,13.77
2023-04-19T13:48:44.989Z,13.87
2023-04-19T13:51:12.910Z,12.83
2023-04-19T13:53:40.824Z,12.00
2023-04-19T13:56:09.687Z,11.41
2023-04-19T13:58:38.299Z,10.96
2023-04-19T14:01:06.164Z,11.03
2023-04-19T14:03:34.119Z,12.36
2023-04-19T14:06:02.283Z,13.53
2023-04-19T14:08:30.133Z,13.51
2023-04-19T14:11:00.405Z,12.52
2023-04-19T14:13:28.460Z,11.74
2023-04-19T14:15:56.289Z,11.20
2023-04-19T14:18:24.183Z,11.27
2023-04-19T14:20:54.594Z,12.57
2023-04-19T14:23:22.422Z,13.74
2023-04-19T14:25:50.268Z,13.48
2023-04-19T14:28:18.560Z,12.51
2023-04-19T14:30:46.512Z,11.76
2023-04-19T14:33:14.424Z,11.26
2023-04-19T14:35:42.935Z,11.34
2023-04-19T14:38:11.213Z,12.66
2023-04-19T14:40:39.461Z,13.54
2023-04-19T14:43:07.231Z,12.83
2023-04-19T14:45:35.191Z,12.02
2023-04-19T14:48:03.219Z,11.45
2023-04-19T14:50:31.263Z,11.51
2023-04-19T14:52:59.098Z,12.83
2023-04-19T14:55:27.851Z,13.95
2023-04-19T14:57:56.476Z,13.76
2023-04-19T15:00:36.654Z,12.71
2023-04-19T15:03:05.052Z,11.99
2023-04-19T15:05:35.295Z,11.48
2023-04-19T15:08:03.711Z,11.59
2023-04-19T15:10:36.381Z,12.93
2023-04-19T15:13:06.146Z,14.06
2023-04-19T15:15:34.041Z,13.76
2023-04-19T15:18:02.783Z,12.77
2023-04-19T15:20:30.981Z,12.05
2023-04-19T15:22:58.766Z,11.55
2023-04-19T15:25:27.137Z,11.64
2023-04-19T15:27:55.675Z,12.95
2023-04-19T15:30:23.507Z,14.12
2023-04-19T15:32:51.350Z,14.18
2023-04-19T15:35:19.263Z,13.17
2023-04-19T15:37:47.724Z,12.39
2023-04-19T15:40:17.142Z,11.83
2023-04-19T15:42:45.493Z,11.81
2023-04-19T15:45:13.533Z,13.08
2023-04-19T15:47:41.400Z,14.26
2023-04-19T15:50:09.578Z,14.58
2023-04-19T15:52:37.461Z,13.62
2023-04-19T15:55:06.035Z,12.75
2023-04-19T15:57:34.214Z,12.13
2023-04-19T16:00:02.127Z,11.76
2023-04-19T16:02:30.109Z,12.64
2023-04-19T16:04:58.008Z,13.94
2023-04-19T16:07:26.042Z,14.42
2023-04-19T16:09:54.138Z,13.49
2023-04-19T16:12:22.293Z,12.65
2023-04-19T16:14:50.326Z,12.07
2023-04-19T16:17:18.728Z,12.30
2023-04-19T16:19:46.721Z,13.65
2023-04-19T16:22:14.653Z,14.37
2023-04-19T16:24:42.629Z,13.55
2023-04-19T16:27:10.528Z,12.70
2023-04-19T16:29:38.591Z,12.47
2023-04-19T16:32:07.078Z,13.62
2023-04-19T16:34:35.079Z,14.72
2023-04-19T16:37:03.430Z,14.36
2023-04-19T16:39:31.294Z,13.35
2023-04-19T16:41:59.276Z,12.62
2023-04-19T16:44:27.219Z,12.61
2023-04-19T16:46:55.781Z,13.87
2023-04-19T16:49:25.411Z,14.79
2023-04-19T16:51:53.528Z,14.15
2023-04-19T16:54:21.375Z,13.17
2023-04-19T16:56:49.170Z,12.48
2023-04-19T16:59:17.456Z,12.78
2023-04-19T17:01:45.704Z,14.06
2023-04-19T17:04:14.253Z,14.68
2023-04-19T17:06:42.334Z,13.80
2023-04-19T17:09:10.371Z,12.91
2023-04-19T17:11:38.445Z,12.69
2023-04-19T17:14:06.638Z,13.83
2023-04-19T17:16:34.693Z,14.82
2023-04-19T17:19:02.949Z,14.25
2023-04-19T17:21:31.520Z,13.25
2023-04-19T17:23:59.539Z,12.58
2023-04-19T17:26:28.224Z,13.21
2023-04-19T17:28:56.292Z,14.41
2023-04-19T17:31:25.393Z,14.84
2023-04-19T17:33:53.365Z,13.86
2023-04-19T17:36:21.334Z,12.94
2023-04-19T17:38:49.125Z,12.73
2023-04-19T17:41:17.214Z,13.89
2023-04-19T17:43:46.269Z,14.89
2023-04-19T17:46:14.938Z,14.51
2023-04-19T17:48:42.894Z,13.45
2023-04-19T17:51:10.985Z,12.66
2023-04-19T17:53:38.840Z,12.91
2023-04-19T17:56:07.029Z,14.16
2023-04-19T17:58:36.504Z,14.73
2023-04-19T18:01:04.716Z,13.78
2023-04-19T18:03:32.761Z,12.87
2023-04-19T18:06:01.510Z,12.99
2023-04-19T18:08:29.597Z,14.19
2023-04-19T18:10:57.596Z,14.92
2023-04-19T18:13:30.479Z,14.14
2023-04-19T18:16:02.306Z,13.11
2023-04-19T18:18:30.855Z,12.86
2023-04-19T18:20:59.909Z,13.99
2023-04-19T18:23:28.181Z,14.97
2023-04-19T18:26:04.674Z,14.54
2023-04-19T18:28:35.550Z,13.43
2023-04-19T18:31:05.407Z,12.63
2023-04-19T18:33:36.613Z,12.72
2023-04-19T18:36:05.964Z,14.00
2023-04-19T18:38:33.960Z,14.98
2023-04-19T18:41:01.878Z,14.66
2023-04-19T18:43:30.937Z,13.57
2023-04-19T18:46:00.272Z,12.80
2023-04-19T18:48:29.492Z,13.37
2023-04-19T18:50:57.546Z,14.60
2023-04-19T18:53:28.618Z,14.97
2023-04-19T18:56:00.245Z,13.94
2023-04-19T18:58:29.520Z,13.01
2023-04-19T19:00:59.200Z,12.74
2023-04-19T19:05:58.648Z,14.94
2023-04-19T19:08:26.732Z,15.23
2023-04-19T19:13:25.697Z,13.20
2023-04-19T19:15:53.547Z,12.95
2023-04-19T19:18:21.515Z,14.06
2023-04-19T19:20:51.445Z,15.06
2023-04-19T19:23:20.417Z,14.78
2023-04-19T19:25:53.912Z,13.66
2023-04-19T19:28:22.478Z,12.84
2023-04-19T19:30:51.109Z,12.77
2023-04-19T19:33:19.442Z,13.98
2023-04-19T19:35:47.302Z,15.01
2023-04-19T19:38:15.230Z,14.87
2023-04-19T19:41:11.125Z,13.77
2023-04-19T19:43:30.729Z,12.83
2023-04-19T19:45:59.716Z,13.11
2023-04-19T19:48:30.081Z,14.34
2023-04-19T19:53:32.431Z,14.95
2023-04-19T19:56:00.474Z,13.82
2023-04-19T19:58:48.225Z,12.97
2023-04-19T20:01:16.755Z,13.02
2023-04-19T20:03:45.348Z,14.24
2023-04-19T20:08:48.374Z,15.42
2023-04-19T20:11:16.198Z,14.28
2023-04-19T20:13:44.135Z,13.34
2023-04-19T20:16:11.886Z,13.40
2023-04-19T20:18:42.525Z,14.61
2023-04-19T20:21:10.393Z,15.51
2023-04-19T20:23:39.428Z,14.96
2023-04-19T20:26:07.452Z,13.84
2023-04-19T20:28:35.400Z,13.31
2023-04-19T20:31:03.262Z,14.25
2023-04-19T20:33:31.116Z,15.31
2023-04-19T20:36:00.652Z,15.36
2023-04-19T20:38:28.634Z,14.24
2023-04-19T20:40:57.151Z,13.31
2023-04-19T20:43:25.031Z,13.21
2023-04-19T20:45:52.985Z,14.36
2023-04-19T20:48:20.947Z,15.35
2023-04-19T20:50:48.849Z,15.52
2023-04-19T20:53:16.851Z,14.41
2023-04-19T20:55:44.953Z,13.45
2023-04-19T20:58:12.775Z,13.27
2023-04-19T21:00:40.825Z,14.43
2023-04-19T21:03:08.993Z,15.46
2023-04-19T21:05:37.401Z,15.51
2023-04-19T21:08:05.374Z,14.39
2023-04-19T21:10:33.959Z,13.43
2023-04-19T21:13:01.780Z,13.31
2023-04-19T21:15:29.628Z,14.49
2023-04-19T21:17:57.433Z,15.50
2023-04-19T21:20:25.666Z,15.68
2023-04-19T21:22:53.476Z,14.57
2023-04-19T21:25:21.604Z,13.59
2023-04-19T21:27:49.451Z,13.71
2023-04-19T21:30:17.273Z,14.89
2023-04-19T21:32:45.084Z,15.78
2023-04-19T21:35:12.955Z,15.69
2023-04-19T21:37:40.736Z,14.54
2023-04-19T21:40:09.061Z,13.61
2023-04-19T21:42:36.812Z,13.83
2023-04-19T21:45:05.243Z,14.97
2023-04-19T21:47:33.224Z,15.87
2023-04-19T21:50:01.027Z,15.51
2023-04-19T21:52:28.981Z,14.37
2023-04-19T21:54:56.801Z,13.56
2023-04-19T21:57:26.943Z,14.08
2023-04-19T21:59:54.854Z,15.26
2023-04-19T22:02:22.874Z,15.69
2023-04-19T22:04:50.898Z,14.68
2023-04-19T22:07:19.435Z,13.71
2023-04-19T22:09:47.688Z,13.46
2023-04-19T22:12:15.603Z,14.55
2023-04-19T22:14:44.708Z,15.59
2023-04-19T22:17:12.513Z,15.81
2023-04-19T22:19:40.267Z,14.72
2023-04-19T22:22:08.008Z,13.74
2023-04-19T22:24:43.964Z,13.56
2023-04-19T22:27:21.380Z,14.81
2023-04-19T22:29:49.192Z,15.74
2023-04-19T22:32:17.305Z,15.29
2023-04-19T22:34:45.124Z,14.17
2023-04-19T22:37:12.956Z,13.37
2023-04-19T22:39:40.767Z,13.76
2023-04-19T22:42:08.814Z,14.97
2023-04-19T22:44:36.674Z,15.73
2023-04-19T22:47:05.033Z,14.98
2023-04-19T22:49:33.031Z,13.92
2023-04-19T22:52:00.841Z,13.53
2023-04-19T22:54:28.705Z,14.54
2023-04-19T22:56:56.729Z,15.55
2023-04-19T22:59:24.972Z,15.60
2023-04-19T23:01:52.771Z,14.50
2023-04-19T23:04:20.708Z,13.55
2023-04-19T23:06:48.788Z,13.39
2023-04-19T23:09:18.116Z,14.52
2023-04-19T23:11:47.702Z,15.51
2023-04-19T23:14:18.519Z,15.68
2023-04-19T23:16:46.557Z,14.58
2023-04-19T23:19:16.630Z,13.62
2023-04-19T23:21:44.688Z,13.47
2023-04-19T23:24:12.478Z,14.56
2023-04-19T23:26:40.510Z,15.52
2023-04-19T23:29:08.347Z,15.75
2023-04-19T23:31:36.215Z,14.71
2023-04-19T23:34:04.064Z,13.73
2023-04-19T23:36:31.951Z,13.43
2023-04-19T23:38:59.741Z,14.49
2023-04-19T23:41:27.680Z,15.52
2023-04-19T23:43:55.639Z,15.72
2023-04-19T23:46:23.485Z,14.66
2023-04-19T23:48:51.347Z,13.68
2023-04-19T23:51:19.181Z,13.47
2023-04-19T23:53:47.058Z,14.55
2023-04-19T23:56:14.821Z,15.50
2023-04-19T23:58:42.603Z,15.73
